Time;durP1;ratioP1;P1;durP2;ratioP2;P2;SDS_P1;SDS_P2;PMS_P1;PMS_P2;Temp;Humidity;BMP_temperature;BMP_pressure;BME280_temperature;BME280_humidity;BME280_pressure;Samples;Min_cycle;Max_cycle;Signal;HPM_P1;HPM_P2
2020/12/23 00:00:08;;;;;;;20.58;4.20;;;4.40;98.40;;;;;;5030783;28;20503;-69
2020/12/23 00:02:34;;;;;;;18.63;4.10;;;4.30;98.40;;;;;;5048246;28;20380;-68
2020/12/23 00:05:00;;;;;;;87.57;6.20;;;4.30;98.40;;;;;;5047706;28;20032;-68
2020/12/23 00:07:25;;;;;;;20.73;4.20;;;4.20;98.40;;;;;;5047573;28;20025;-69
2020/12/23 00:09:51;;;;;;;21.52;4.55;;;4.10;98.40;;;;;;5047362;28;20070;-67
2020/12/23 00:12:16;;;;;;;28.27;5.28;;;4.00;98.40;;;;;;5048011;28;20041;-67
2020/12/23 00:14:42;;;;;;;23.00;4.95;;;4.00;98.50;;;;;;5030585;28;20377;-67
2020/12/23 00:17:08;;;;;;;31.10;5.10;;;3.90;98.50;;;;;;5048911;28;20116;-69
2020/12/23 00:19:33;;;;;;;22.48;5.35;;;3.80;98.50;;;;;;5047035;28;20040;-69
2020/12/23 00:22:00;;;;;;;28.60;5.25;;;3.80;98.50;;;;;;5047734;28;20187;-68
2020/12/23 00:24:26;;;;;;;24.92;5.45;;;3.80;98.60;;;;;;5045986;28;22091;-67
2020/12/23 00:26:52;;;;;;;22.75;6.03;;;3.80;98.60;;;;;;5046465;28;20032;-67
2020/12/23 00:29:17;;;;;;;38.17;6.35;;;3.70;98.60;;;;;;5045851;28;20044;-67
2020/12/23 00:31:43;;;;;;;168.27;9.95;;;3.70;98.60;;;;;;5047319;28;20024;-67
2020/12/23 00:34:08;;;;;;;30.05;5.53;;;3.60;98.60;;;;;;5046245;28;20473;-69
2020/12/23 00:36:34;;;;;;;32.10;6.35;;;3.50;98.60;;;;;;5047616;28;20021;-68
2020/12/23 00:39:00;;;;;;;29.98;7.38;;;3.50;98.60;;;;;;5047844;28;20083;-69
2020/12/23 00:41:25;;;;;;;125.82;9.10;;;3.40;98.70;;;;;;5046513;28;20028;-69
2020/12/23 00:43:51;;;;;;;35.72;7.15;;;3.40;98.60;;;;;;5045478;28;20075;-67
2020/12/23 00:46:16;;;;;;;27.52;6.88;;;3.40;98.70;;;;;;5046391;28;20050;-67
2020/12/23 00:48:43;;;;;;;24.02;6.75;;;3.50;98.70;;;;;;5059420;28;20025;-67
2020/12/23 00:51:13;;;;;;;27.73;7.22;;;3.50;98.70;;;;;;5065686;28;20476;-66
2020/12/23 00:53:43;;;;;;;44.13;8.57;;;3.50;98.70;;;;;;5061433;28;20039;-66
2020/12/23 00:56:12;;;;;;;25.80;7.85;;;3.60;98.80;;;;;;5062148;28;20102;-67
2020/12/23 00:58:38;;;;;;;37.35;9.25;;;3.60;98.80;;;;;;5061002;28;20116;-67
2020/12/23 01:01:04;;;;;;;29.08;8.40;;;3.70;98.80;;;;;;5063030;28;20127;-67
2020/12/23 01:03:29;;;;;;;27.00;8.90;;;3.80;98.80;;;;;;5050703;28;20173;-67
2020/12/23 01:05:55;;;;;;;50.55;10.40;;;3.90;98.80;;;;;;5060328;28;20111;-66
2020/12/23 01:08:21;;;;;;;40.83;11.05;;;3.90;98.80;;;;;;5063003;28;20021;-70
2020/12/23 01:10:47;;;;;;;43.65;11.10;;;4.10;98.90;;;;;;5064191;28;20485;-67
2020/12/23 01:13:14;;;;;;;31.25;11.90;;;4.10;98.90;;;;;;5045165;28;20148;-66
2020/12/23 01:15:40;;;;;;;72.38;13.40;;;4.30;98.90;;;;;;5048769;28;20021;-66
2020/12/23 01:18:06;;;;;;;41.38;11.43;;;4.10;98.90;;;;;;5061398;28;20152;-68
2020/12/23 01:20:31;;;;;;;40.38;11.93;;;3.90;98.90;;;;;;5065622;28;20428;-67
2020/12/23 01:22:57;;;;;;;49.17;11.55;;;3.90;98.80;;;;;;5054685;28;20081;-67
2020/12/23 01:25:23;;;;;;;44.40;11.95;;;4.00;98.90;;;;;;5061247;28;20037;-67
2020/12/23 01:27:48;;;;;;;49.28;12.05;;;4.00;98.90;;;;;;5033823;28;20036;-67
2020/12/23 01:30:16;;;;;;;49.92;12.48;;;4.00;98.90;;;;;;5053933;28;20024;-66
2020/12/23 01:32:42;;;;;;;46.55;13.30;;;4.10;98.90;;;;;;5059931;28;20036;-66
2020/12/23 01:35:08;;;;;;;46.58;12.98;;;4.20;98.90;;;;;;5034231;28;20021;-67
2020/12/23 01:37:33;;;;;;;46.00;13.75;;;4.40;98.90;;;;;;5063786;28;20034;-66
2020/12/23 01:39:59;;;;;;;60.65;14.63;;;4.30;98.90;;;;;;5071594;28;20052;-66
2020/12/23 01:42:24;;;;;;;78.05;14.27;;;4.20;98.90;;;;;;5056896;28;20025;-67
2020/12/23 01:44:50;;;;;;;55.38;14.50;;;4.20;98.90;;;;;;5068459;28;20099;-67
2020/12/23 01:47:22;;;;;;;68.22;15.77;;;4.30;98.90;;;;;;5057082;28;20036;-66
2020/12/23 01:49:49;;;;;;;52.38;14.15;;;4.40;98.90;;;;;;5048825;28;20568;-66
2020/12/23 01:52:17;;;;;;;54.67;13.23;;;4.40;99.00;;;;;;5053474;28;20032;-66
2020/12/23 01:54:42;;;;;;;62.35;15.70;;;4.60;99.00;;;;;;5050020;28;20051;-67
2020/12/23 01:57:11;;;;;;;47.53;13.82;;;4.60;99.00;;;;;;5055044;28;20029;-66
2020/12/23 01:59:43;;;;;;;49.95;14.43;;;4.50;98.90;;;;;;5052219;28;20353;-66
2020/12/23 02:02:28;;;;;;;52.58;15.18;;;4.60;99.00;;;;;;5060494;28;20060;-66
2020/12/23 02:04:55;;;;;;;85.07;16.20;;;4.40;98.90;;;;;;5066045;28;20056;-66
2020/12/23 02:07:22;;;;;;;46.97;13.05;;;4.30;98.90;;;;;;5054894;28;20028;-66
2020/12/23 02:09:51;;;;;;;61.75;15.05;;;4.30;98.90;;;;;;5048582;28;20033;-66
2020/12/23 02:12:16;;;;;;;107.82;16.30;;;4.30;98.90;;;;;;5051082;28;20435;-66
2020/12/23 02:14:42;;;;;;;67.53;15.15;;;4.20;98.90;;;;;;5050159;28;20025;-66
2020/12/23 02:17:08;;;;;;;89.25;14.57;;;4.20;98.90;;;;;;5055609;28;20036;-66
2020/12/23 02:19:49;;;;;;;55.05;13.20;;;4.20;98.90;;;;;;5068602;28;20106;-66
2020/12/23 02:22:30;;;;;;;172.32;16.10;;;4.20;98.90;;;;;;5057182;28;20025;-67
2020/12/23 02:24:56;;;;;;;;;;;4.20;98.90;;;;;;5052726;28;20036;-66
2020/12/23 02:27:23;;;;;;;143.48;15.88;;;4.20;98.90;;;;;;5061789;28;19912;-67
2020/12/23 02:29:50;;;;;;;105.78;14.32;;;4.30;99.00;;;;;;5058194;28;20375;-67
2020/12/23 02:32:16;;;;;;;82.28;13.55;;;4.30;99.00;;;;;;5070117;28;20036;-66
2020/12/23 02:34:42;;;;;;;196.35;16.55;;;4.30;99.00;;;;;;5072104;28;20143;-67
2020/12/23 02:37:09;;;;;;;232.25;18.05;;;4.30;99.00;;;;;;5060735;28;20037;-67
2020/12/23 02:39:36;;;;;;;141.45;15.15;;;4.30;99.00;;;;;;5055563;28;20029;-66
2020/12/23 02:42:03;;;;;;;155.20;14.85;;;4.30;99.00;;;;;;5051205;28;20024;-66
2020/12/23 02:44:29;;;;;;;212.85;16.20;;;4.40;99.00;;;;;;5062080;28;20043;-65
2020/12/23 02:47:02;;;;;;;161.60;14.45;;;4.30;99.00;;;;;;5064561;28;20036;-66
2020/12/23 02:49:29;;;;;;;179.45;15.02;;;4.40;99.00;;;;;;5067059;28;20029;-66
2020/12/23 02:51:56;;;;;;;130.82;14.77;;;4.30;99.00;;;;;;5064164;28;20077;-66
2020/12/23 02:54:22;;;;;;;122.40;13.25;;;4.30;99.00;;;;;;5055963;28;20062;-67
2020/12/23 02:56:48;;;;;;;98.93;12.13;;;4.30;99.00;;;;;;5053257;28;20606;-66
2020/12/23 02:59:14;;;;;;;125.88;13.57;;;4.30;99.00;;;;;;5067515;28;20134;-67
2020/12/23 03:01:40;;;;;;;104.43;13.57;;;4.30;99.00;;;;;;5069536;28;20044;-67
2020/12/23 03:04:06;;;;;;;124.10;12.57;;;4.40;99.00;;;;;;5049026;28;20033;-66
2020/12/23 03:06:33;;;;;;;140.43;13.35;;;4.40;99.00;;;;;;5060636;28;20016;-68
2020/12/23 03:08:59;;;;;;;72.70;10.77;;;4.40;99.00;;;;;;5064266;28;20082;-67
2020/12/23 03:11:25;;;;;;;103.35;12.85;;;4.40;99.00;;;;;;5065657;28;20042;-66
2020/12/23 03:13:50;;;;;;;101.43;12.85;;;4.40;99.00;;;;;;5047902;28;20111;-67
2020/12/23 03:16:16;;;;;;;91.20;13.32;;;4.40;99.00;;;;;;5057014;28;20070;-66
2020/12/23 03:18:42;;;;;;;105.95;14.45;;;4.40;99.00;;;;;;5060669;28;20027;-66
2020/12/23 03:21:08;;;;;;;140.02;14.30;;;4.40;99.00;;;;;;5078631;28;20024;-66
2020/12/23 03:23:35;;;;;;;110.47;14.00;;;4.40;99.00;;;;;;5061817;28;20025;-66
2020/12/23 03:26:01;;;;;;;143.60;14.93;;;4.40;98.90;;;;;;5050959;28;20366;-66
2020/12/23 03:28:27;;;;;;;180.07;16.05;;;4.40;99.00;;;;;;5065406;28;20020;-66
2020/12/23 03:30:52;;;;;;;136.95;15.32;;;4.40;99.00;;;;;;5057771;28;20461;-66
2020/12/23 03:33:18;;;;;;;147.38;15.23;;;4.30;99.00;;;;;;5053936;28;20086;-66
2020/12/23 03:35:43;;;;;;;126.15;15.02;;;4.40;99.00;;;;;;5047409;28;20101;-66
2020/12/23 03:38:09;;;;;;;202.30;17.02;;;4.30;99.00;;;;;;5074709;28;20078;-66
2020/12/23 03:40:34;;;;;;;211.02;18.83;;;4.30;99.00;;;;;;5066801;28;20032;-66
2020/12/23 03:43:00;;;;;;;210.70;17.75;;;4.20;99.00;;;;;;5055165;28;20033;-66
2020/12/23 03:45:27;;;;;;;215.18;17.98;;;4.30;99.00;;;;;;5041278;28;20029;-66
2020/12/23 03:47:53;;;;;;;203.30;20.02;;;4.20;99.00;;;;;;5058752;28;20463;-67
2020/12/23 03:50:19;;;;;;;188.35;17.88;;;4.20;99.00;;;;;;5056478;28;20036;-66
2020/12/23 03:52:44;;;;;;;206.20;18.73;;;4.10;99.00;;;;;;5055207;28;20024;-66
2020/12/23 03:55:10;;;;;;;215.73;17.33;;;4.10;99.00;;;;;;5051839;28;20032;-66
2020/12/23 03:57:36;;;;;;;172.27;17.40;;;4.10;99.00;;;;;;5055775;28;20078;-66
2020/12/23 04:00:05;;;;;;;206.75;18.63;;;4.10;99.00;;;;;;5037257;28;20029;-67
2020/12/23 04:02:31;;;;;;;140.07;15.30;;;4.00;98.90;;;;;;5055570;28;20033;-66
2020/12/23 04:04:56;;;;;;;167.15;16.50;;;4.00;99.00;;;;;;5055069;28;20036;-67
2020/12/23 04:07:22;;;;;;;199.90;18.80;;;4.00;98.90;;;;;;5058501;28;20461;-66
2020/12/23 04:09:47;;;;;;;216.55;19.10;;;4.00;99.00;;;;;;5050857;28;20123;-66
2020/12/23 04:12:13;;;;;;;213.18;19.85;;;4.00;99.00;;;;;;5045923;28;20082;-68
2020/12/23 04:14:39;;;;;;;249.75;20.02;;;4.00;99.00;;;;;;5049376;28;20025;-67
2020/12/23 04:17:04;;;;;;;222.75;21.17;;;4.00;99.00;;;;;;5062668;28;20069;-67
2020/12/23 04:19:30;;;;;;;255.57;21.55;;;4.10;99.00;;;;;;5062456;28;20185;-67
2020/12/23 04:21:55;;;;;;;241.40;22.50;;;4.10;99.00;;;;;;5064709;28;20224;-66
2020/12/23 04:24:21;;;;;;;217.82;20.85;;;4.10;99.00;;;;;;5063032;28;20453;-67
2020/12/23 04:26:47;;;;;;;224.27;20.65;;;4.10;99.00;;;;;;5063399;28;20026;-67
2020/12/23 04:29:12;;;;;;;215.55;19.73;;;4.00;99.00;;;;;;5065552;28;20052;-67
2020/12/23 04:31:38;;;;;;;190.50;19.73;;;4.00;99.00;;;;;;5064834;28;20028;-65
2020/12/23 04:34:04;;;;;;;187.55;19.15;;;4.00;99.00;;;;;;5045370;28;20108;-67
2020/12/23 04:36:29;;;;;;;185.82;19.48;;;3.90;99.00;;;;;;5048951;28;20457;-68
2020/12/23 04:38:55;;;;;;;161.43;17.17;;;3.90;99.00;;;;;;5056606;28;20120;-66
2020/12/23 04:41:20;;;;;;;175.55;17.80;;;3.80;99.00;;;;;;5046276;28;20393;-66
2020/12/23 04:43:47;;;;;;;133.43;16.13;;;3.70;98.90;;;;;;5060596;28;20108;-66
2020/12/23 04:46:18;;;;;;;165.52;16.38;;;3.60;98.90;;;;;;5051185;28;20515;-68
2020/12/23 04:48:46;;;;;;;94.47;15.15;;;3.60;98.90;;;;;;5058239;28;20432;-67
2020/12/23 04:51:14;;;;;;;141.13;16.27;;;3.50;98.90;;;;;;5045688;28;20154;-66
2020/12/23 04:53:40;;;;;;;96.70;14.90;;;3.50;98.90;;;;;;5053520;28;20096;-66
2020/12/23 04:56:06;;;;;;;136.25;15.90;;;3.40;98.90;;;;;;5054531;28;20510;-67
2020/12/23 04:58:31;;;;;;;123.68;15.35;;;3.40;98.90;;;;;;5053245;28;20098;-67
2020/12/23 05:00:57;;;;;;;52.15;12.75;;;3.40;98.90;;;;;;5067636;28;20020;-67
2020/12/23 05:03:22;;;;;;;96.28;13.88;;;3.30;98.90;;;;;;5062483;28;20056;-66
2020/12/23 05:05:48;;;;;;;90.90;14.40;;;3.30;98.90;;;;;;5067341;28;20417;-67
2020/12/23 05:08:14;;;;;;;123.07;14.60;;;3.20;98.90;;;;;;5062790;28;20102;-67
2020/12/23 05:10:41;;;;;;;92.25;13.80;;;3.10;98.90;;;;;;5054945;28;20020;-68
2020/12/23 05:13:07;;;;;;;119.07;15.18;;;3.10;98.90;;;;;;5063189;28;20044;-66
2020/12/23 05:15:34;;;;;;;186.85;17.85;;;3.10;98.90;;;;;;5049670;28;20029;-67
2020/12/23 05:18:01;;;;;;;182.00;16.45;;;3.10;98.90;;;;;;5054200;28;20037;-67
2020/12/23 05:20:28;;;;;;;85.40;14.60;;;3.10;98.90;;;;;;5049205;28;20087;-66
2020/12/23 05:22:54;;;;;;;94.75;13.40;;;3.00;98.90;;;;;;5038020;28;20369;-66
2020/12/23 05:25:20;;;;;;;95.95;15.10;;;3.00;98.90;;;;;;5064700;28;20402;-67
2020/12/23 05:27:48;;;;;;;168.40;16.73;;;3.00;99.00;;;;;;5047545;28;20021;-66
2020/12/23 05:30:14;;;;;;;98.78;15.70;;;2.90;99.00;;;;;;5049720;28;20032;-66
2020/12/23 05:32:41;;;;;;;65.43;12.82;;;2.90;98.90;;;;;;5048303;28;20048;-67
2020/12/23 05:35:06;;;;;;;119.63;15.15;;;2.90;99.00;;;;;;5049171;28;20042;-67
2020/12/23 05:37:32;;;;;;;140.95;15.50;;;2.90;98.90;;;;;;5049205;28;20351;-66
2020/12/23 05:39:59;;;;;;;138.60;15.73;;;2.80;99.00;;;;;;5048795;28;20036;-66
2020/12/23 05:42:26;;;;;;;140.95;16.55;;;2.80;99.00;;;;;;5049089;28;20033;-67
2020/12/23 05:44:54;;;;;;;103.63;15.18;;;2.80;99.00;;;;;;5058696;28;20029;-66
2020/12/23 05:47:24;;;;;;;120.43;15.38;;;2.80;99.00;;;;;;5067131;28;20024;-66
2020/12/23 05:49:51;;;;;;;94.30;15.40;;;2.80;99.00;;;;;;5053424;28;20480;-66
2020/12/23 05:52:21;;;;;;;87.55;14.68;;;2.80;99.00;;;;;;5049598;28;21119;-67
2020/12/23 05:54:52;;;;;;;99.47;15.43;;;2.80;99.00;;;;;;5061582;28;20016;-67
2020/12/23 05:57:19;;;;;;;135.82;16.90;;;2.80;99.00;;;;;;5056821;28;20131;-67
2020/12/23 05:59:45;;;;;;;101.00;16.95;;;2.80;99.00;;;;;;5048177;28;20199;-67
2020/12/23 06:02:14;;;;;;;125.30;16.48;;;2.80;99.00;;;;;;5063170;28;20055;-67
2020/12/23 06:04:43;;;;;;;137.95;16.20;;;2.80;99.00;;;;;;5054624;28;20108;-67
2020/12/23 06:07:10;;;;;;;175.32;18.10;;;2.80;98.90;;;;;;5051528;28;20360;-67
2020/12/23 06:09:38;;;;;;;174.18;18.77;;;2.80;99.00;;;;;;5049084;28;20028;-67
2020/12/23 06:12:21;;;;;;;141.35;18.42;;;2.80;98.90;;;;;;5048499;28;20028;-68
2020/12/23 06:14:56;;;;;;;134.07;18.00;;;2.80;98.90;;;;;;5047744;28;20035;-67
2020/12/23 06:17:24;;;;;;;159.02;18.45;;;2.80;98.90;;;;;;5049528;28;20043;-67
2020/12/23 06:19:54;;;;;;;147.98;18.40;;;2.80;98.90;;;;;;5050754;28;20055;-66
2020/12/23 06:22:22;;;;;;;120.72;18.15;;;2.80;98.90;;;;;;5025805;28;20213;-67
2020/12/23 06:24:48;;;;;;;100.75;17.40;;;2.80;98.90;;;;;;5060056;28;20567;-66
2020/12/23 06:27:14;;;;;;;179.80;19.98;;;2.80;98.90;;;;;;5058463;28;20204;-66
2020/12/23 06:29:42;;;;;;;91.80;16.80;;;2.80;98.90;;;;;;5047787;28;20021;-66
2020/12/23 06:32:10;;;;;;;96.47;16.52;;;2.80;98.90;;;;;;5048289;28;20102;-67
2020/12/23 06:34:38;;;;;;;97.25;16.67;;;2.80;98.90;;;;;;5048071;28;20059;-67
2020/12/23 06:37:16;;;;;;;77.82;14.57;;;2.90;98.90;;;;;;5050689;28;20038;-67
2020/12/23 06:39:42;;;;;;;114.97;15.93;;;2.80;98.90;;;;;;5057009;28;20464;-67
2020/12/23 06:42:08;;;;;;;92.40;15.18;;;2.80;98.90;;;;;;5053502;28;20031;-67
2020/12/23 06:44:43;;;;;;;137.73;16.50;;;2.80;98.90;;;;;;5060510;28;20033;-67
2020/12/23 06:47:12;;;;;;;76.78;15.15;;;2.80;98.90;;;;;;5052600;28;20029;-66
2020/12/23 06:50:06;;;;;;;108.00;17.52;;;2.70;98.90;;;;;;5047938;28;20028;-67
2020/12/23 06:52:34;;;;;;;159.18;18.48;;;2.70;98.90;;;;;;5057633;28;21054;-66
2020/12/23 06:55:07;;;;;;;125.82;17.00;;;2.70;98.90;;;;;;5035064;28;20082;-69
2020/12/23 06:57:35;;;;;;;72.25;15.93;;;2.60;98.90;;;;;;5018364;28;20127;-66
2020/12/23 07:00:01;;;;;;;62.08;15.30;;;2.60;98.90;;;;;;5047689;28;20028;-66
2020/12/23 07:02:27;;;;;;;102.53;17.30;;;2.60;98.80;;;;;;5044540;28;20364;-67
2020/12/23 07:04:54;;;;;;;104.00;16.92;;;2.60;98.80;;;;;;5053921;28;20032;-67
2020/12/23 07:07:40;;;;;;;93.47;16.42;;;2.50;98.90;;;;;;5060590;28;20814;-67
2020/12/23 07:10:23;;;;;;;68.18;16.02;;;2.50;98.80;;;;;;5058142;28;20394;-68
2020/12/23 07:12:56;;;;;;;65.60;15.77;;;2.50;98.90;;;;;;5047447;28;20029;-67
2020/12/23 07:15:38;;;;;;;99.03;18.60;;;2.50;98.80;;;;;;5055429;28;20562;-67
2020/12/23 07:18:05;;;;;;;81.65;17.23;;;2.50;98.90;;;;;;5053271;28;20032;-68
2020/12/23 07:20:58;;;;;;;71.47;16.58;;;2.50;98.90;;;;;;5054694;28;20026;-69
2020/12/23 07:23:26;;;;;;;75.20;15.43;;;2.50;98.80;;;;;;5054605;28;20021;-67
2020/12/23 07:25:53;;;;;;;76.30;15.82;;;2.40;98.80;;;;;;5057155;28;20031;-68
2020/12/23 07:28:33;;;;;;;79.40;15.73;;;2.40;98.80;;;;;;5050926;28;20069;-67
2020/12/23 07:31:00;;;;;;;105.68;16.95;;;2.40;98.80;;;;;;5050710;28;20036;-67
2020/12/23 07:33:27;;;;;;;135.85;19.10;;;2.40;98.80;;;;;;5047182;28;20059;-67
2020/12/23 07:35:57;;;;;;;90.22;19.05;;;2.40;98.80;;;;;;5053494;28;20043;-67
2020/12/23 07:38:26;;;;;;;106.85;19.23;;;2.50;98.80;;;;;;5057139;28;20388;-67
2020/12/23 07:40:52;;;;;;;83.95;17.92;;;2.50;98.80;;;;;;5057637;28;20040;-65
2020/12/23 07:43:20;;;;;;;80.57;19.02;;;2.50;98.80;;;;;;5049040;28;20033;-67
2020/12/23 07:45:47;;;;;;;76.90;19.98;;;2.50;98.80;;;;;;5051028;28;20105;-67
2020/12/23 07:48:18;;;;;;;70.70;18.40;;;2.50;98.80;;;;;;5047407;28;20134;-67
2020/12/23 07:50:44;;;;;;;86.40;24.80;;;2.50;98.80;;;;;;5046994;28;20454;-66
2020/12/23 07:53:18;;;;;;;83.97;25.33;;;2.50;98.90;;;;;;5062128;28;20426;-66
2020/12/23 07:55:45;;;;;;;94.75;27.63;;;2.60;98.80;;;;;;5053633;28;20497;-67
2020/12/23 07:58:11;;;;;;;87.40;23.13;;;2.60;98.90;;;;;;5052714;28;20074;-67
2020/12/23 08:00:39;;;;;;;68.22;19.92;;;2.60;98.80;;;;;;5056951;28;20036;-67
2020/12/23 08:03:08;;;;;;;69.47;16.40;;;2.60;98.80;;;;;;5052507;28;20179;-68
2020/12/23 08:05:37;;;;;;;77.80;16.63;;;2.60;98.80;;;;;;5058570;28;20033;-69
2020/12/23 08:08:06;;;;;;;57.03;15.90;;;2.70;98.90;;;;;;5059515;28;20032;-68
2020/12/23 08:10:32;;;;;;;73.60;17.83;;;2.70;98.90;;;;;;5047845;28;20037;-68
2020/12/23 08:12:59;;;;;;;65.45;19.23;;;2.70;98.90;;;;;;5060522;28;20020;-69
2020/12/23 08:15:25;;;;;;;77.47;21.75;;;2.70;98.80;;;;;;5065227;28;20130;-67
2020/12/23 08:18:05;;;;;;;79.35;21.08;;;2.80;98.90;;;;;;5049537;28;20037;-67
2020/12/23 08:20:34;;;;;;;77.03;19.63;;;2.80;98.90;;;;;;5046641;28;20146;-68
2020/12/23 08:23:01;;;;;;;82.50;19.38;;;2.90;98.90;;;;;;5052674;28;20594;-67
2020/12/23 08:25:28;;;;;;;77.68;19.48;;;2.90;98.90;;;;;;5064093;28;20130;-67
2020/12/23 08:27:57;;;;;;;79.20;17.92;;;2.90;98.90;;;;;;5061369;28;20012;-68
2020/12/23 08:30:29;;;;;;;87.97;19.15;;;2.90;98.80;;;;;;5054499;28;20070;-67
2020/12/23 08:33:02;;;;;;;86.03;18.65;;;3.00;98.80;;;;;;5056371;28;20621;-68
2020/12/23 08:35:36;;;;;;;88.75;17.73;;;3.00;98.90;;;;;;5060634;28;20013;-69
2020/12/23 08:38:03;;;;;;;87.82;18.35;;;3.00;98.90;;;;;;5056732;28;20090;-68
2020/12/23 08:40:29;;;;;;;102.03;18.17;;;3.10;98.80;;;;;;5068839;28;20387;-67
2020/12/23 08:42:56;;;;;;;88.85;18.23;;;3.10;98.80;;;;;;5062353;28;20097;-68
2020/12/23 08:45:29;;;;;;;83.00;16.65;;;3.20;98.80;;;;;;5050939;28;20079;-67
2020/12/23 08:47:56;;;;;;;107.35;18.25;;;3.30;98.80;;;;;;5056561;28;20021;-68
2020/12/23 08:50:25;;;;;;;94.53;18.20;;;3.30;98.80;;;;;;5041305;28;20020;-68
2020/12/23 08:52:52;;;;;;;108.07;19.00;;;3.40;98.80;;;;;;5055591;28;20037;-71
2020/12/23 08:55:23;;;;;;;108.18;18.55;;;3.40;98.80;;;;;;5059194;28;20085;-69
2020/12/23 08:57:50;;;;;;;124.50;18.98;;;3.40;98.80;;;;;;5057310;28;20119;-69
2020/12/23 09:00:17;;;;;;;102.95;16.88;;;3.50;98.80;;;;;;5063131;28;20429;-67
2020/12/23 09:02:44;;;;;;;72.40;15.65;;;3.50;98.80;;;;;;5051976;28;20025;-70
2020/12/23 09:05:36;;;;;;;131.70;18.40;;;3.60;98.80;;;;;;5049461;28;20130;-69
2020/12/23 09:08:11;;;;;;;99.38;16.48;;;3.70;98.80;;;;;;5047051;28;20068;-68
2020/12/23 09:10:37;;;;;;;74.15;16.85;;;3.80;98.80;;;;;;5041040;28;20029;-67
2020/12/23 09:13:08;;;;;;;101.53;17.05;;;3.90;98.80;;;;;;5059556;28;20098;-66
2020/12/23 09:15:35;;;;;;;89.50;17.83;;;4.00;98.80;;;;;;5059886;28;20025;-68
2020/12/23 09:18:14;;;;;;;89.53;17.95;;;4.10;98.80;;;;;;5051571;28;20059;-68
2020/12/23 09:20:41;;;;;;;82.38;18.30;;;4.10;98.80;;;;;;5049049;28;20025;-68
2020/12/23 09:23:11;;;;;;;91.50;19.98;;;4.10;98.80;;;;;;5063328;28;20028;-68
2020/12/23 09:25:38;;;;;;;80.38;19.00;;;4.20;98.80;;;;;;5052207;28;20024;-68
2020/12/23 09:28:08;;;;;;;81.07;18.88;;;4.20;98.80;;;;;;5061941;28;20021;-67
2020/12/23 09:30:41;;;;;;;69.97;17.40;;;4.40;98.80;;;;;;5050126;28;20031;-67
2020/12/23 09:33:12;;;;;;;59.35;15.45;;;4.40;98.80;;;;;;5057386;28;20469;-68
2020/12/23 09:35:39;;;;;;;67.63;16.67;;;4.50;98.80;;;;;;5067403;28;20492;-67
2020/12/23 09:38:10;;;;;;;65.43;16.13;;;4.60;98.70;;;;;;5065445;28;20441;-67
2020/12/23 09:40:57;;;;;;;66.97;16.40;;;4.60;98.80;;;;;;5051232;28;20025;-68
2020/12/23 09:43:28;;;;;;;62.13;16.67;;;4.60;98.70;;;;;;5047332;28;20037;-68
2020/12/23 09:45:56;;;;;;;70.75;20.48;;;4.70;98.70;;;;;;5062229;28;20461;-68
2020/12/23 09:48:23;;;;;;;57.58;21.15;;;4.80;98.70;;;;;;5057764;28;20020;-68
2020/12/23 09:50:52;;;;;;;67.05;22.63;;;4.90;98.70;;;;;;5052623;28;20096;-67
2020/12/23 09:53:19;;;;;;;72.93;22.73;;;4.90;98.70;;;;;;5059430;28;20591;-68
2020/12/23 09:55:45;;;;;;;46.72;17.90;;;4.90;98.70;;;;;;5066709;28;20032;-68
2020/12/23 09:58:12;;;;;;;60.92;17.00;;;5.00;98.70;;;;;;5061044;28;20032;-67
2020/12/23 10:00:38;;;;;;;48.35;15.18;;;5.00;98.60;;;;;;5062801;28;20124;-67
2020/12/23 10:03:04;;;;;;;46.88;14.13;;;5.10;98.60;;;;;;5060050;28;20124;-68
2020/12/23 10:05:30;;;;;;;38.05;11.55;;;5.10;98.60;;;;;;5062949;28;20021;-68
2020/12/23 10:07:55;;;;;;;37.50;12.30;;;5.10;98.60;;;;;;5058969;28;20204;-67
2020/12/23 10:10:21;;;;;;;32.90;11.18;;;5.30;98.60;;;;;;5059444;28;20451;-68
2020/12/23 10:12:47;;;;;;;37.30;11.50;;;5.30;98.50;;;;;;5051459;28;20480;-68
2020/12/23 10:15:12;;;;;;;40.75;11.75;;;5.30;98.50;;;;;;5060336;28;20043;-67
2020/12/23 10:17:38;;;;;;;39.95;11.20;;;5.30;98.40;;;;;;5057486;28;20048;-68
2020/12/23 10:20:06;;;;;;;35.13;10.73;;;5.40;98.40;;;;;;5051597;28;20060;-66
2020/12/23 10:22:31;;;;;;;33.30;8.77;;;5.50;98.40;;;;;;5055882;28;20030;-68
2020/12/23 10:24:57;;;;;;;30.88;9.82;;;5.50;98.40;;;;;;5056322;28;20393;-69
2020/12/23 10:27:23;;;;;;;28.27;8.60;;;5.60;98.40;;;;;;5057721;28;20455;-67
2020/12/23 10:29:48;;;;;;;35.97;8.70;;;5.60;98.30;;;;;;5049559;28;20037;-67
2020/12/23 10:32:14;;;;;;;23.27;8.50;;;5.70;98.30;;;;;;5051541;28;20101;-68
2020/12/23 10:34:40;;;;;;;27.27;7.72;;;5.80;98.30;;;;;;5055419;28;20409;-67
2020/12/23 10:37:06;;;;;;;22.77;7.50;;;5.80;98.10;;;;;;5052845;28;20030;-68
2020/12/23 10:39:32;;;;;;;23.80;7.95;;;5.90;98.10;;;;;;5057144;28;20146;-67
2020/12/23 10:41:57;;;;;;;21.70;8.10;;;5.90;98.00;;;;;;5058488;28;20028;-68
2020/12/23 10:44:23;;;;;;;27.88;8.10;;;5.90;97.80;;;;;;5063064;28;20100;-67
2020/12/23 10:46:57;;;;;;;23.90;8.00;;;5.90;97.70;;;;;;5061241;28;20086;-68
2020/12/23 10:49:24;;;;;;;16.83;7.70;;;5.90;97.60;;;;;;5047361;28;20170;-67
2020/12/23 10:51:58;;;;;;;25.73;8.70;;;5.90;97.60;;;;;;5051135;28;20025;-68
2020/12/23 10:54:25;;;;;;;28.58;9.43;;;5.90;97.60;;;;;;5049703;28;20032;-68
2020/12/23 10:56:51;;;;;;;32.17;9.30;;;5.90;97.60;;;;;;5049498;28;20037;-68
2020/12/23 10:59:16;;;;;;;24.30;8.77;;;5.90;97.60;;;;;;5049142;28;20551;-67
2020/12/23 11:01:43;;;;;;;25.00;7.70;;;5.90;97.50;;;;;;5046380;28;20512;-67
2020/12/23 11:04:08;;;;;;;25.48;8.63;;;5.90;97.60;;;;;;5058863;28;20350;-67
2020/12/23 11:06:34;;;;;;;30.23;9.45;;;6.00;97.60;;;;;;5057063;28;20107;-67
2020/12/23 11:09:00;;;;;;;32.70;9.52;;;6.00;97.60;;;;;;5059282;28;20068;-67
2020/12/23 11:11:26;;;;;;;38.03;9.27;;;6.00;97.60;;;;;;5054730;28;21501;-67
2020/12/23 11:13:52;;;;;;;32.80;9.45;;;5.90;97.60;;;;;;5052522;28;20082;-67
2020/12/23 11:16:19;;;;;;;33.90;9.93;;;6.00;97.70;;;;;;5059320;28;20076;-66
2020/12/23 11:18:46;;;;;;;28.25;8.77;;;6.00;97.70;;;;;;5054136;28;20041;-68
2020/12/23 11:21:12;;;;;;;31.55;10.02;;;5.90;97.80;;;;;;5057873;28;20028;-67
2020/12/23 11:23:38;;;;;;;33.15;9.38;;;6.00;97.80;;;;;;5043170;28;20063;-67
2020/12/23 11:26:04;;;;;;;42.35;10.02;;;6.00;97.90;;;;;;5056017;28;20055;-67
2020/12/23 11:28:32;;;;;;;35.65;9.23;;;6.00;97.90;;;;;;5054464;28;20066;-68
2020/12/23 11:30:59;;;;;;;44.22;9.40;;;5.90;97.90;;;;;;5059353;28;20024;-68
2020/12/23 11:33:28;;;;;;;34.72;9.90;;;6.00;98.00;;;;;;5055161;28;20027;-68
2020/12/23 11:35:55;;;;;;;44.13;10.18;;;5.90;98.00;;;;;;5053766;28;20020;-67
2020/12/23 11:38:22;;;;;;;32.30;9.65;;;5.90;98.00;;;;;;5060178;28;20060;-68
2020/12/23 11:40:48;;;;;;;49.33;10.45;;;5.90;98.10;;;;;;5040252;28;20485;-67
2020/12/23 11:43:14;;;;;;;39.75;9.77;;;5.90;98.10;;;;;;5052058;28;20131;-67
2020/12/23 11:45:40;;;;;;;42.05;10.68;;;6.00;98.20;;;;;;5057446;28;20088;-68
2020/12/23 11:48:05;;;;;;;48.75;10.57;;;6.00;98.20;;;;;;5053038;28;20489;-67
2020/12/23 11:50:31;;;;;;;45.70;11.02;;;6.00;98.20;;;;;;5059238;28;20024;-68
2020/12/23 11:52:56;;;;;;;40.33;10.68;;;6.00;98.20;;;;;;5063688;28;20028;-69
2020/12/23 11:55:22;;;;;;;39.35;11.00;;;6.00;98.30;;;;;;5049187;28;20048;-68
2020/12/23 11:57:47;;;;;;;38.88;10.93;;;6.00;98.30;;;;;;5046831;28;20033;-67
2020/12/23 12:00:14;;;;;;;35.17;11.73;;;6.10;98.30;;;;;;5052249;28;20041;-68
2020/12/23 12:02:39;;;;;;;33.25;10.68;;;6.00;98.30;;;;;;5056606;28;20059;-67
2020/12/23 12:05:09;;;;;;;27.73;9.88;;;6.10;98.30;;;;;;5052734;28;20029;-67
2020/12/23 12:07:34;;;;;;;31.55;10.40;;;6.00;98.30;;;;;;5055533;28;20124;-67
2020/12/23 12:10:01;;;;;;;31.20;10.07;;;6.10;98.30;;;;;;5057959;28;20116;-67
2020/12/23 12:12:27;;;;;;;30.52;9.88;;;6.10;98.30;;;;;;5050299;28;20414;-67
2020/12/23 12:14:53;;;;;;;26.33;10.43;;;6.10;98.30;;;;;;5054493;28;20063;-71
2020/12/23 12:17:18;;;;;;;36.35;10.55;;;6.10;98.30;;;;;;5056768;28;20044;-67
2020/12/23 12:19:44;;;;;;;29.05;9.95;;;6.10;98.30;;;;;;5054211;28;20032;-68
2020/12/23 12:22:10;;;;;;;30.33;9.85;;;6.10;98.30;;;;;;5044458;28;20230;-67
2020/12/23 12:24:36;;;;;;;25.25;9.10;;;6.10;98.30;;;;;;5050306;28;20079;-67
2020/12/23 12:27:01;;;;;;;22.45;8.75;;;6.10;98.30;;;;;;5050933;28;20039;-67
2020/12/23 12:29:27;;;;;;;21.75;9.07;;;6.10;98.30;;;;;;5045744;28;20044;-68
2020/12/23 12:31:53;;;;;;;19.70;8.77;;;6.10;98.30;;;;;;5061881;28;20028;-67
2020/12/23 12:34:19;;;;;;;16.95;8.20;;;6.10;98.20;;;;;;5055979;28;20067;-67
2020/12/23 12:36:44;;;;;;;19.70;8.25;;;6.10;98.20;;;;;;5055362;28;20024;-67